sensor_id;sensor_type;location;lat;lon;timestamp;temperature;humidity
24636;DHT22;12772;49.794;10.024;2023-04-25T00:02:08;12.10;51.00
24636;DHT22;12772;49.794;10.024;2023-04-25T00:06:10;12.10;51.00
24636;DHT22;12772;49.794;10.024;2023-04-25T00:10:12;11.90;51.50
24636;DHT22;12772;49.794;10.024;2023-04-25T00:14:15;12.10;51.00
24636;DHT22;12772;49.794;10.024;2023-04-25T00:18:17;12.10;51.00
24636;DHT22;12772;49.794;10.024;2023-04-25T00:22:20;12.10;51.30
24636;DHT22;12772;49.794;10.024;2023-04-25T00:26:22;11.80;51.30
24636;DHT22;12772;49.794;10.024;2023-04-25T00:30:24;12.10;51.90
24636;DHT22;12772;49.794;10.024;2023-04-25T00:34:26;12.10;52.00
24636;DHT22;12772;49.794;10.024;2023-04-25T00:38:28;12.10;51.80
24636;DHT22;12772;49.794;10.024;2023-04-25T00:42:30;12.10;51.80
24636;DHT22;12772;49.794;10.024;2023-04-25T00:46:33;12.10;51.80
24636;DHT22;12772;49.794;10.024;2023-04-25T00:50:37;12.10;51.70
24636;DHT22;12772;49.794;10.024;2023-04-25T00:54:39;12.10;51.90
24636;DHT22;12772;49.794;10.024;2023-04-25T00:58:42;12.10;52.30
24636;DHT22;12772;49.794;10.024;2023-04-25T01:02:44;12.00;52.60
24636;DHT22;12772;49.794;10.024;2023-04-25T01:06:47;12.10;53.00
24636;DHT22;12772;49.794;10.024;2023-04-25T01:10:49;12.00;52.70
24636;DHT22;12772;49.794;10.024;2023-04-25T01:14:52;11.80;52.50
24636;DHT22;12772;49.794;10.024;2023-04-25T01:18:54;12.00;52.70
24636;DHT22;12772;49.794;10.024;2023-04-25T01:22:56;12.10;52.80
24636;DHT22;12772;49.794;10.024;2023-04-25T01:27:00;12.10;52.80
24636;DHT22;12772;49.794;10.024;2023-04-25T01:31:03;11.70;52.50
24636;DHT22;12772;49.794;10.024;2023-04-25T01:35:06;12.10;53.30
24636;DHT22;12772;49.794;10.024;2023-04-25T01:39:10;12.00;53.30
24636;DHT22;12772;49.794;10.024;2023-04-25T01:43:13;11.90;53.40
24636;DHT22;12772;49.794;10.024;2023-04-25T01:47:15;12.00;53.70
24636;DHT22;12772;49.794;10.024;2023-04-25T01:51:17;11.80;54.00
24636;DHT22;12772;49.794;10.024;2023-04-25T01:55:19;11.80;54.10
24636;DHT22;12772;49.794;10.024;2023-04-25T01:59:22;11.70;54.10
24636;DHT22;12772;49.794;10.024;2023-04-25T02:03:24;11.70;54.50
24636;DHT22;12772;49.794;10.024;2023-04-25T02:07:26;11.60;55.20
24636;DHT22;12772;49.794;10.024;2023-04-25T02:11:28;11.60;54.80
24636;DHT22;12772;49.794;10.024;2023-04-25T02:15:31;11.50;54.50
24636;DHT22;12772;49.794;10.024;2023-04-25T02:19:33;11.40;55.00
24636;DHT22;12772;49.794;10.024;2023-04-25T02:23:35;11.30;55.50
24636;DHT22;12772;49.794;10.024;2023-04-25T02:27:38;11.30;56.00
24636;DHT22;12772;49.794;10.024;2023-04-25T02:31:40;11.20;56.10
24636;DHT22;12772;49.794;10.024;2023-04-25T02:35:42;11.20;56.70
24636;DHT22;12772;49.794;10.024;2023-04-25T02:39:44;11.20;56.80
24636;DHT22;12772;49.794;10.024;2023-04-25T02:43:46;10.90;56.20
24636;DHT22;12772;49.794;10.024;2023-04-25T02:47:48;11.10;56.80
24636;DHT22;12772;49.794;10.024;2023-04-25T02:51:50;11.10;57.20
24636;DHT22;12772;49.794;10.024;2023-04-25T02:55:52;11.00;57.50
24636;DHT22;12772;49.794;10.024;2023-04-25T02:59:55;11.00;57.50
24636;DHT22;12772;49.794;10.024;2023-04-25T03:03:57;10.90;58.00
24636;DHT22;12772;49.794;10.024;2023-04-25T03:07:59;10.70;57.70
24636;DHT22;12772;49.794;10.024;2023-04-25T03:12:01;10.90;58.00
24636;DHT22;12772;49.794;10.024;2023-04-25T03:16:03;10.90;58.00
24636;DHT22;12772;49.794;10.024;2023-04-25T03:20:06;10.90;58.00
24636;DHT22;12772;49.794;10.024;2023-04-25T03:24:09;10.90;58.00
24636;DHT22;12772;49.794;10.024;2023-04-25T03:28:11;10.50;57.50
24636;DHT22;12772;49.794;10.024;2023-04-25T03:32:13;10.50;57.50
24636;DHT22;12772;49.794;10.024;2023-04-25T03:36:15;10.80;57.90
24636;DHT22;12772;49.794;10.024;2023-04-25T03:40:17;10.80;57.90
24636;DHT22;12772;49.794;10.024;2023-04-25T03:44:20;10.70;57.70
24636;DHT22;12772;49.794;10.024;2023-04-25T03:48:22;10.50;58.10
24636;DHT22;12772;49.794;10.024;2023-04-25T03:52:25;11.20;59.00
24636;DHT22;12772;49.794;10.024;2023-04-25T03:56:27;10.80;58.30
24636;DHT22;12772;49.794;10.024;2023-04-25T04:00:29;10.80;57.90
24636;DHT22;12772;49.794;10.024;2023-04-25T04:04:31;10.70;57.90
24636;DHT22;12772;49.794;10.024;2023-04-25T04:08:34;10.70;58.40
24636;DHT22;12772;49.794;10.024;2023-04-25T04:12:36;10.70;58.60
24636;DHT22;12772;49.794;10.024;2023-04-25T04:16:38;10.40;58.50
24636;DHT22;12772;49.794;10.024;2023-04-25T04:20:40;10.30;58.70
24636;DHT22;12772;49.794;10.024;2023-04-25T04:24:43;10.40;58.90
24636;DHT22;12772;49.794;10.024;2023-04-25T04:28:47;10.70;59.10
24636;DHT22;12772;49.794;10.024;2023-04-25T04:32:49;10.60;59.20
24636;DHT22;12772;49.794;10.024;2023-04-25T04:36:52;11.10;59.80
24636;DHT22;12772;49.794;10.024;2023-04-25T04:40:54;10.50;59.30
24636;DHT22;12772;49.794;10.024;2023-04-25T04:44:56;10.50;59.70
24636;DHT22;12772;49.794;10.024;2023-04-25T04:48:59;11.20;60.40
24636;DHT22;12772;49.794;10.024;2023-04-25T04:53:02;10.90;60.00
24636;DHT22;12772;49.794;10.024;2023-04-25T04:57:04;10.90;59.60
24636;DHT22;12772;49.794;10.024;2023-04-25T05:01:06;10.70;59.80
24636;DHT22;12772;49.794;10.024;2023-04-25T05:05:09;11.00;59.20
24636;DHT22;12772;49.794;10.024;2023-04-25T05:09:11;10.90;58.70
24636;DHT22;12772;49.794;10.024;2023-04-25T05:13:13;11.10;58.20
24636;DHT22;12772;49.794;10.024;2023-04-25T05:17:15;10.80;57.90
24636;DHT22;12772;49.794;10.024;2023-04-25T05:21:17;10.90;58.00
24636;DHT22;12772;49.794;10.024;2023-04-25T05:25:19;11.20;58.30
24636;DHT22;12772;49.794;10.024;2023-04-25T05:29:21;11.20;58.30
24636;DHT22;12772;49.794;10.024;2023-04-25T05:33:23;11.20;58.30
24636;DHT22;12772;49.794;10.024;2023-04-25T05:37:25;11.20;58.30
24636;DHT22;12772;49.794;10.024;2023-04-25T05:41:27;11.30;58.50
24636;DHT22;12772;49.794;10.024;2023-04-25T05:45:29;11.20;58.30
24636;DHT22;12772;49.794;10.024;2023-04-25T05:49:32;11.20;58.30
24636;DHT22;12772;49.794;10.024;2023-04-25T05:53:35;11.20;58.30
24636;DHT22;12772;49.794;10.024;2023-04-25T05:57:37;11.20;58.30
24636;DHT22;12772;49.794;10.024;2023-04-25T06:01:42;11.20;59.00
24636;DHT22;12772;49.794;10.024;2023-04-25T06:05:44;11.20;58.30
24636;DHT22;12772;49.794;10.024;2023-04-25T06:09:46;10.90;57.60
24636;DHT22;12772;49.794;10.024;2023-04-25T06:13:48;11.10;58.20
24636;DHT22;12772;49.794;10.024;2023-04-25T06:17:50;11.10;57.20
24636;DHT22;12772;49.794;10.024;2023-04-25T06:21:52;11.10;57.50
24636;DHT22;12772;49.794;10.024;2023-04-25T06:25:54;11.40;57.90
24636;DHT22;12772;49.794;10.024;2023-04-25T06:29:57;11.20;56.80
24636;DHT22;12772;49.794;10.024;2023-04-25T06:33:59;11.20;56.80
24636;DHT22;12772;49.794;10.024;2023-04-25T06:38:01;11.20;56.60
24636;DHT22;12772;49.794;10.024;2023-04-25T06:42:03;11.20;56.10
24636;DHT22;12772;49.794;10.024;2023-04-25T06:46:05;11.20;55.70
24636;DHT22;12772;49.794;10.024;2023-04-25T06:50:07;11.20;54.80
24636;DHT22;12772;49.794;10.024;2023-04-25T06:54:10;11.20;53.30
24636;DHT22;12772;49.794;10.024;2023-04-25T06:58:12;10.90;52.80
24636;DHT22;12772;49.794;10.024;2023-04-25T07:02:14;10.90;50.50
24636;DHT22;12772;49.794;10.024;2023-04-25T07:06:16;11.10;50.50
24636;DHT22;12772;49.794;10.024;2023-04-25T07:10:18;11.00;49.50
24636;DHT22;12772;49.794;10.024;2023-04-25T07:14:22;11.00;48.90
24636;DHT22;12772;49.794;10.024;2023-04-25T07:18:24;10.80;48.40
24636;DHT22;12772;49.794;10.024;2023-04-25T07:22:26;11.40;48.70
24636;DHT22;12772;49.794;10.024;2023-04-25T07:26:29;11.10;47.60
24636;DHT22;12772;49.794;10.024;2023-04-25T07:30:31;11.50;46.30
24636;DHT22;12772;49.794;10.024;2023-04-25T07:34:34;11.30;45.30
24636;DHT22;12772;49.794;10.024;2023-04-25T07:38:38;11.20;45.10
24636;DHT22;12772;49.794;10.024;2023-04-25T07:42:41;11.20;45.10
24636;DHT22;12772;49.794;10.024;2023-04-25T07:46:43;11.30;43.40
24636;DHT22;12772;49.794;10.024;2023-04-25T07:50:45;11.50;42.60
24636;DHT22;12772;49.794;10.024;2023-04-25T07:54:47;11.50;41.40
24636;DHT22;12772;49.794;10.024;2023-04-25T07:58:49;11.60;41.70
24636;DHT22;12772;49.794;10.024;2023-04-25T08:02:51;11.70;41.60
24636;DHT22;12772;49.794;10.024;2023-04-25T08:06:54;11.80;40.30
24636;DHT22;12772;49.794;10.024;2023-04-25T08:10:56;11.90;40.00
24636;DHT22;12772;49.794;10.024;2023-04-25T08:14:58;12.10;39.70
24636;DHT22;12772;49.794;10.024;2023-04-25T08:19:00;12.30;38.40
24636;DHT22;12772;49.794;10.024;2023-04-25T08:23:02;12.40;37.70
24636;DHT22;12772;49.794;10.024;2023-04-25T08:27:06;12.60;38.20
24636;DHT22;12772;49.794;10.024;2023-04-25T08:31:08;12.70;37.80
24636;DHT22;12772;49.794;10.024;2023-04-25T08:35:11;12.90;38.10
24636;DHT22;12772;49.794;10.024;2023-04-25T08:39:13;13.20;38.10
24636;DHT22;12772;49.794;10.024;2023-04-25T08:43:18;13.30;37.90
24636;DHT22;12772;49.794;10.024;2023-04-25T08:47:22;13.50;36.80
24636;DHT22;12772;49.794;10.024;2023-04-25T08:51:25;13.60;36.90
24636;DHT22;12772;49.794;10.024;2023-04-25T08:55:29;13.80;37.50
24636;DHT22;12772;49.794;10.024;2023-04-25T08:59:32;14.00;37.50
24636;DHT22;12772;49.794;10.024;2023-04-25T09:03:35;14.10;36.70
24636;DHT22;12772;49.794;10.024;2023-04-25T09:07:37;14.30;36.40
24636;DHT22;12772;49.794;10.024;2023-04-25T09:11:39;14.30;36.70
24636;DHT22;12772;49.794;10.024;2023-04-25T09:15:57;14.40;34.90
24636;DHT22;12772;49.794;10.024;2023-04-25T09:20:11;14.40;34.90
24636;DHT22;12772;49.794;10.024;2023-04-25T09:24:14;14.50;35.00
24636;DHT22;12772;49.794;10.024;2023-04-25T09:28:16;14.60;35.10
24636;DHT22;12772;49.794;10.024;2023-04-25T09:32:20;14.70;34.60
24636;DHT22;12772;49.794;10.024;2023-04-25T09:36:26;14.80;32.30
24636;DHT22;12772;49.794;10.024;2023-04-25T09:40:30;14.80;32.80
24636;DHT22;12772;49.794;10.024;2023-04-25T09:44:32;14.90;32.30
24636;DHT22;12772;49.794;10.024;2023-04-25T09:48:34;14.90;31.40
24636;DHT22;12772;49.794;10.024;2023-04-25T09:52:37;15.00;31.40
24636;DHT22;12772;49.794;10.024;2023-04-25T09:56:39;15.00;31.50
24636;DHT22;12772;49.794;10.024;2023-04-25T10:00:41;15.00;31.70
24636;DHT22;12772;49.794;10.024;2023-04-25T10:04:45;15.10;31.40
24636;DHT22;12772;49.794;10.024;2023-04-25T10:08:50;15.10;30.80
24636;DHT22;12772;49.794;10.024;2023-04-25T10:12:53;15.00;30.90
24636;DHT22;12772;49.794;10.024;2023-04-25T10:17:00;15.00;30.50
24636;DHT22;12772;49.794;10.024;2023-04-25T10:21:04;15.00;29.80
24636;DHT22;12772;49.794;10.024;2023-04-25T10:25:07;14.90;29.70
24636;DHT22;12772;49.794;10.024;2023-04-25T10:29:10;14.90;30.40
24636;DHT22;12772;49.794;10.024;2023-04-25T10:33:17;14.90;30.00
24636;DHT22;12772;49.794;10.024;2023-04-25T10:37:19;15.00;30.00
24636;DHT22;12772;49.794;10.024;2023-04-25T10:41:22;15.10;30.00
24636;DHT22;12772;49.794;10.024;2023-04-25T10:45:25;15.10;29.60
24636;DHT22;12772;49.794;10.024;2023-04-25T10:49:38;15.10;29.90
24636;DHT22;12772;49.794;10.024;2023-04-25T10:53:48;15.10;30.10
24636;DHT22;12772;49.794;10.024;2023-04-25T10:57:58;15.20;30.00
24636;DHT22;12772;49.794;10.024;2023-04-25T11:02:11;15.30;29.70
24636;DHT22;12772;49.794;10.024;2023-04-25T11:06:29;15.30;29.30
24636;DHT22;12772;49.794;10.024;2023-04-25T11:10:34;15.30;29.20
24636;DHT22;12772;49.794;10.024;2023-04-25T11:14:37;15.20;29.50
24636;DHT22;12772;49.794;10.024;2023-04-25T11:18:43;15.10;29.60
24636;DHT22;12772;49.794;10.024;2023-04-25T11:22:46;15.10;29.70
24636;DHT22;12772;49.794;10.024;2023-04-25T11:26:48;15.10;29.60
24636;DHT22;12772;49.794;10.024;2023-04-25T11:30:51;15.00;29.60
24636;DHT22;12772;49.794;10.024;2023-04-25T11:34:53;14.90;29.50
24636;DHT22;12772;49.794;10.024;2023-04-25T11:38:55;14.90;29.70
24636;DHT22;12772;49.794;10.024;2023-04-25T11:43:00;14.80;29.80
24636;DHT22;12772;49.794;10.024;2023-04-25T11:47:02;14.70;30.00
24636;DHT22;12772;49.794;10.024;2023-04-25T11:51:04;14.70;29.80
24636;DHT22;12772;49.794;10.024;2023-04-25T11:55:14;14.70;29.90
24636;DHT22;12772;49.794;10.024;2023-04-25T11:59:17;14.70;29.90
24636;DHT22;12772;49.794;10.024;2023-04-25T12:03:24;14.60;29.80
24636;DHT22;12772;49.794;10.024;2023-04-25T12:07:31;14.50;29.40
24636;DHT22;12772;49.794;10.024;2023-04-25T12:11:41;14.50;29.00
24636;DHT22;12772;49.794;10.024;2023-04-25T12:15:44;14.40;29.20
24636;DHT22;12772;49.794;10.024;2023-04-25T12:19:46;14.40;29.60
24636;DHT22;12772;49.794;10.024;2023-04-25T12:23:48;14.40;29.30
24636;DHT22;12772;49.794;10.024;2023-04-25T12:27:51;14.40;29.50
24636;DHT22;12772;49.794;10.024;2023-04-25T12:31:54;14.40;29.10
24636;DHT22;12772;49.794;10.024;2023-04-25T12:35:58;14.30;29.20
24636;DHT22;12772;49.794;10.024;2023-04-25T12:40:01;14.30;29.30
24636;DHT22;12772;49.794;10.024;2023-04-25T12:44:04;14.30;29.80
24636;DHT22;12772;49.794;10.024;2023-04-25T12:48:07;14.30;30.00
24636;DHT22;12772;49.794;10.024;2023-04-25T12:52:09;14.30;30.20
24636;DHT22;12772;49.794;10.024;2023-04-25T12:56:11;14.20;30.60
24636;DHT22;12772;49.794;10.024;2023-04-25T13:00:13;14.20;30.90
24636;DHT22;12772;49.794;10.024;2023-04-25T13:04:18;14.20;30.90
24636;DHT22;12772;49.794;10.024;2023-04-25T13:08:34;14.20;31.50
24636;DHT22;12772;49.794;10.024;2023-04-25T13:12:37;14.20;31.30
24636;DHT22;12772;49.794;10.024;2023-04-25T13:16:39;14.20;30.90
24636;DHT22;12772;49.794;10.024;2023-04-25T13:20:41;14.10;30.90
24636;DHT22;12772;49.794;10.024;2023-04-25T13:24:44;14.10;31.00
24636;DHT22;12772;49.794;10.024;2023-04-25T13:28:46;14.10;31.20
24636;DHT22;12772;49.794;10.024;2023-04-25T13:32:48;14.10;31.10
24636;DHT22;12772;49.794;10.024;2023-04-25T13:36:50;14.10;31.70
24636;DHT22;12772;49.794;10.024;2023-04-25T13:40:52;14.10;33.00
24636;DHT22;12772;49.794;10.024;2023-04-25T13:44:54;14.00;34.50
24636;DHT22;12772;49.794;10.024;2023-04-25T13:48:56;13.90;34.40
24636;DHT22;12772;49.794;10.024;2023-04-25T13:52:58;13.80;35.50
24636;DHT22;12772;49.794;10.024;2023-04-25T13:57:00;13.70;35.60
24636;DHT22;12772;49.794;10.024;2023-04-25T14:01:03;13.80;35.60
24636;DHT22;12772;49.794;10.024;2023-04-25T14:05:05;13.80;35.00
24636;DHT22;12772;49.794;10.024;2023-04-25T14:09:08;13.90;34.60
24636;DHT22;12772;49.794;10.024;2023-04-25T14:13:11;13.90;34.50
24636;DHT22;12772;49.794;10.024;2023-04-25T14:17:13;14.00;34.50
24636;DHT22;12772;49.794;10.024;2023-04-25T14:21:15;14.10;34.60
24636;DHT22;12772;49.794;10.024;2023-04-25T14:25:17;14.10;34.60
24636;DHT22;12772;49.794;10.024;2023-04-25T14:29:19;14.20;34.70
24636;DHT22;12772;49.794;10.024;2023-04-25T14:33:22;14.20;34.00
24636;DHT22;12772;49.794;10.024;2023-04-25T14:37:24;14.00;31.30
24636;DHT22;12772;49.794;10.024;2023-04-25T14:41:26;13.90;31.20
24636;DHT22;12772;49.794;10.024;2023-04-25T14:45:28;13.90;32.20
24636;DHT22;12772;49.794;10.024;2023-04-25T14:49:32;13.90;31.50
24636;DHT22;12772;49.794;10.024;2023-04-25T14:53:34;13.90;30.70
24636;DHT22;12772;49.794;10.024;2023-04-25T14:57:37;13.90;30.60
24636;DHT22;12772;49.794;10.024;2023-04-25T15:01:40;13.90;30.60
24636;DHT22;12772;49.794;10.024;2023-04-25T15:05:43;13.90;30.20
24636;DHT22;12772;49.794;10.024;2023-04-25T15:09:46;13.90;30.00
24636;DHT22;12772;49.794;10.024;2023-04-25T15:13:49;13.90;30.00
24636;DHT22;12772;49.794;10.024;2023-04-25T15:17:51;13.90;29.40
24636;DHT22;12772;49.794;10.024;2023-04-25T15:21:54;13.90;29.90
24636;DHT22;12772;49.794;10.024;2023-04-25T15:25:56;13.90;29.90
24636;DHT22;12772;49.794;10.024;2023-04-25T15:29:59;13.90;29.70
24636;DHT22;12772;49.794;10.024;2023-04-25T15:34:01;13.90;29.70
24636;DHT22;12772;49.794;10.024;2023-04-25T15:38:04;13.90;29.90
24636;DHT22;12772;49.794;10.024;2023-04-25T15:42:07;13.90;29.50
24636;DHT22;12772;49.794;10.024;2023-04-25T15:46:09;13.90;28.70
24636;DHT22;12772;49.794;10.024;2023-04-25T15:50:12;13.80;27.90
24636;DHT22;12772;49.794;10.024;2023-04-25T15:54:14;13.70;27.80
24636;DHT22;12772;49.794;10.024;2023-04-25T15:58:17;13.70;28.30
24636;DHT22;12772;49.794;10.024;2023-04-25T16:02:19;13.70;27.80
24636;DHT22;12772;49.794;10.024;2023-04-25T16:06:21;13.80;28.50
24636;DHT22;12772;49.794;10.024;2023-04-25T16:10:23;13.80;28.20
24636;DHT22;12772;49.794;10.024;2023-04-25T16:14:26;13.90;28.40
24636;DHT22;12772;49.794;10.024;2023-04-25T16:18:31;13.80;28.20
24636;DHT22;12772;49.794;10.024;2023-04-25T16:22:33;13.80;28.30
24636;DHT22;12772;49.794;10.024;2023-04-25T16:26:35;13.80;28.20
24636;DHT22;12772;49.794;10.024;2023-04-25T16:30:38;13.80;28.30
24636;DHT22;12772;49.794;10.024;2023-04-25T16:34:40;13.80;28.30
24636;DHT22;12772;49.794;10.024;2023-04-25T16:38:42;13.80;28.70
24636;DHT22;12772;49.794;10.024;2023-04-25T16:42:44;13.80;28.80
24636;DHT22;12772;49.794;10.024;2023-04-25T16:46:46;13.80;28.80
24636;DHT22;12772;49.794;10.024;2023-04-25T16:50:49;13.80;28.70
24636;DHT22;12772;49.794;10.024;2023-04-25T16:54:52;13.80;28.70
24636;DHT22;12772;49.794;10.024;2023-04-25T16:58:54;13.80;28.70
24636;DHT22;12772;49.794;10.024;2023-04-25T17:02:56;13.70;28.80
24636;DHT22;12772;49.794;10.024;2023-04-25T17:06:58;13.70;28.90
24636;DHT22;12772;49.794;10.024;2023-04-25T17:11:01;13.70;28.90
24636;DHT22;12772;49.794;10.024;2023-04-25T17:15:03;14.00;29.30
24636;DHT22;12772;49.794;10.024;2023-04-25T17:19:08;13.60;29.00
24636;DHT22;12772;49.794;10.024;2023-04-25T17:23:11;13.60;29.10
24636;DHT22;12772;49.794;10.024;2023-04-25T17:27:13;13.50;29.20
24636;DHT22;12772;49.794;10.024;2023-04-25T17:31:15;13.50;29.20
24636;DHT22;12772;49.794;10.024;2023-04-25T17:35:18;13.50;29.40
24636;DHT22;12772;49.794;10.024;2023-04-25T17:39:20;13.50;29.20
24636;DHT22;12772;49.794;10.024;2023-04-25T17:43:23;13.40;29.00
24636;DHT22;12772;49.794;10.024;2023-04-25T17:47:26;13.30;29.10
24636;DHT22;12772;49.794;10.024;2023-04-25T17:51:29;13.30;29.00
24636;DHT22;12772;49.794;10.024;2023-04-25T17:55:31;13.20;28.90
24636;DHT22;12772;49.794;10.024;2023-04-25T17:59:33;13.20;29.00
24636;DHT22;12772;49.794;10.024;2023-04-25T18:03:36;13.10;29.00
24636;DHT22;12772;49.794;10.024;2023-04-25T18:07:40;13.00;28.90
24636;DHT22;12772;49.794;10.024;2023-04-25T18:11:46;12.90;28.90
24636;DHT22;12772;49.794;10.024;2023-04-25T18:15:48;13.10;29.40
24636;DHT22;12772;49.794;10.024;2023-04-25T18:19:51;12.80;29.40
24636;DHT22;12772;49.794;10.024;2023-04-25T18:23:56;12.80;29.50
24636;DHT22;12772;49.794;10.024;2023-04-25T18:27:58;12.80;29.60
24636;DHT22;12772;49.794;10.024;2023-04-25T18:32:00;12.80;29.70
24636;DHT22;12772;49.794;10.024;2023-04-25T18:36:04;12.70;29.70
24636;DHT22;12772;49.794;10.024;2023-04-25T18:40:07;12.80;30.00
24636;DHT22;12772;49.794;10.024;2023-04-25T18:44:12;12.70;30.00
24636;DHT22;12772;49.794;10.024;2023-04-25T18:48:14;12.70;30.00
24636;DHT22;12772;49.794;10.024;2023-04-25T18:52:16;12.70;30.10
24636;DHT22;12772;49.794;10.024;2023-04-25T18:56:19;12.70;30.20
24636;DHT22;12772;49.794;10.024;2023-04-25T19:00:22;12.50;30.40
24636;DHT22;12772;49.794;10.024;2023-04-25T19:04:24;12.50;30.90
24636;DHT22;12772;49.794;10.024;2023-04-25T19:08:27;12.60;31.00
24636;DHT22;12772;49.794;10.024;2023-04-25T19:12:30;12.50;31.20
24636;DHT22;12772;49.794;10.024;2023-04-25T19:16:33;12.50;31.50
24636;DHT22;12772;49.794;10.024;2023-04-25T19:20:38;12.20;31.20
24636;DHT22;12772;49.794;10.024;2023-04-25T19:24:40;12.30;31.60
24636;DHT22;12772;49.794;10.024;2023-04-25T19:28:43;12.10;32.10
24636;DHT22;12772;49.794;10.024;2023-04-25T19:32:45;12.00;32.20
24636;DHT22;12772;49.794;10.024;2023-04-25T19:36:47;11.80;32.00
24636;DHT22;12772;49.794;10.024;2023-04-25T19:40:52;11.80;32.10
24636;DHT22;12772;49.794;10.024;2023-04-25T19:44:54;11.70;31.90
24636;DHT22;12772;49.794;10.024;2023-04-25T19:48:57;11.70;31.90
24636;DHT22;12772;49.794;10.024;2023-04-25T19:52:59;11.70;31.90
24636;DHT22;12772;49.794;10.024;2023-04-25T19:57:01;11.60;31.80
24636;DHT22;12772;49.794;10.024;2023-04-25T20:01:04;11.60;31.80
24636;DHT22;12772;49.794;10.024;2023-04-25T20:05:07;11.10;31.20
24636;DHT22;12772;49.794;10.024;2023-04-25T20:09:09;11.50;31.70
24636;DHT22;12772;49.794;10.024;2023-04-25T20:13:11;11.30;31.50
24636;DHT22;12772;49.794;10.024;2023-04-25T20:17:16;11.40;31.50
24636;DHT22;12772;49.794;10.024;2023-04-25T20:21:18;11.40;31.60
24636;DHT22;12772;49.794;10.024;2023-04-25T20:25:22;11.40;31.60
24636;DHT22;12772;49.794;10.024;2023-04-25T20:29:25;11.20;31.30
24636;DHT22;12772;49.794;10.024;2023-04-25T20:33:27;11.70;31.90
24636;DHT22;12772;49.794;10.024;2023-04-25T20:37:30;10.90;31.00
24636;DHT22;12772;49.794;10.024;2023-04-25T20:41:34;11.60;32.30
24636;DHT22;12772;49.794;10.024;2023-04-25T20:45:38;11.20;32.00
24636;DHT22;12772;49.794;10.024;2023-04-25T20:49:40;11.20;32.30
24636;DHT22;12772;49.794;10.024;2023-04-25T20:53:42;10.90;32.50
24636;DHT22;12772;49.794;10.024;2023-04-25T20:57:44;11.10;32.90
24636;DHT22;12772;49.794;10.024;2023-04-25T21:01:47;11.20;33.10
24636;DHT22;12772;49.794;10.024;2023-04-25T21:05:49;11.20;33.30
24636;DHT22;12772;49.794;10.024;2023-04-25T21:09:53;11.20;33.60
24636;DHT22;12772;49.794;10.024;2023-04-25T21:13:55;11.50;34.10
24636;DHT22;12772;49.794;10.024;2023-04-25T21:17:57;11.10;33.80
24636;DHT22;12772;49.794;10.024;2023-04-25T21:22:00;11.00;33.80
24636;DHT22;12772;49.794;10.024;2023-04-25T21:26:03;11.00;33.90
24636;DHT22;12772;49.794;10.024;2023-04-25T21:30:06;10.90;34.10
24636;DHT22;12772;49.794;10.024;2023-04-25T21:34:08;10.90;34.30
24636;DHT22;12772;49.794;10.024;2023-04-25T21:38:11;10.40;33.90
24636;DHT22;12772;49.794;10.024;2023-04-25T21:42:15;10.80;34.50
24636;DHT22;12772;49.794;10.024;2023-04-25T21:46:17;10.80;34.60
24636;DHT22;12772;49.794;10.024;2023-04-25T21:50:22;10.70;34.70
24636;DHT22;12772;49.794;10.024;2023-04-25T21:54:24;10.70;34.80
24636;DHT22;12772;49.794;10.024;2023-04-25T21:58:26;10.60;34.80
24636;DHT22;12772;49.794;10.024;2023-04-25T22:02:29;10.50;35.00
24636;DHT22;12772;49.794;10.024;2023-04-25T22:06:31;10.50;35.20
24636;DHT22;12772;49.794;10.024;2023-04-25T22:10:33;10.40;35.40
24636;DHT22;12772;49.794;10.024;2023-04-25T22:14:35;10.40;35.60
24636;DHT22;12772;49.794;10.024;2023-04-25T22:18:38;10.00;35.20
24636;DHT22;12772;49.794;10.024;2023-04-25T22:22:42;10.00;35.30
24636;DHT22;12772;49.794;10.024;2023-04-25T22:26:44;10.10;35.70
24636;DHT22;12772;49.794;10.024;2023-04-25T22:30:46;10.00;35.80
24636;DHT22;12772;49.794;10.024;2023-04-25T22:34:49;9.90;37.10
24636;DHT22;12772;49.794;10.024;2023-04-25T22:38:51;9.50;36.90
24636;DHT22;12772;49.794;10.024;2023-04-25T22:42:54;9.70;37.40
24636;DHT22;12772;49.794;10.024;2023-04-25T22:46:56;9.70;37.60
24636;DHT22;12772;49.794;10.024;2023-04-25T22:51:02;9.70;37.90
24636;DHT22;12772;49.794;10.024;2023-04-25T22:55:05;9.60;37.80
24636;DHT22;12772;49.794;10.024;2023-04-25T22:59:07;9.50;37.80
24636;DHT22;12772;49.794;10.024;2023-04-25T23:03:11;9.50;38.10
24636;DHT22;12772;49.794;10.024;2023-04-25T23:07:13;9.80;38.60
24636;DHT22;12772;49.794;10.024;2023-04-25T23:11:15;9.50;38.40
24636;DHT22;12772;49.794;10.024;2023-04-25T23:15:17;9.20;38.40
24636;DHT22;12772;49.794;10.024;2023-04-25T23:19:23;9.40;38.70
24636;DHT22;12772;49.794;10.024;2023-04-25T23:23:26;9.40;38.70
24636;DHT22;12772;49.794;10.024;2023-04-25T23:27:29;9.10;38.30
24636;DHT22;12772;49.794;10.024;2023-04-25T23:31:31;9.30;38.30
24636;DHT22;12772;49.794;10.024;2023-04-25T23:35:36;9.20;38.40
24636;DHT22;12772;49.794;10.024;2023-04-25T23:39:38;9.10;38.40
24636;DHT22;12772;49.794;10.024;2023-04-25T23:43:40;8.80;38.40
24636;DHT22;12772;49.794;10.024;2023-04-25T23:47:42;9.00;38.80
24636;DHT22;12772;49.794;10.024;2023-04-25T23:51:44;9.00;38.90
24636;DHT22;12772;49.794;10.024;2023-04-25T23:55:46;8.90;38.90
24636;DHT22;12772;49.794;10.024;2023-04-25T23:59:49;8.90;39.10
